createdAt,value
2023-05-15T00:01:39.339Z,10.68
2023-05-15T00:04:08.078Z,8.25
2023-05-15T00:06:37.121Z,8.02
2023-05-15T00:09:14.138Z,9.70
2023-05-15T00:11:48.938Z,7.35
2023-05-15T00:14:17.952Z,7.72
2023-05-15T00:16:56.948Z,7.43
2023-05-15T00:19:25.620Z,8.48
2023-05-15T00:21:58.095Z,8.65
2023-05-15T00:24:38.610Z,6.93
2023-05-15T00:27:10.736Z,8.10
2023-05-15T00:29:39.289Z,10.60
2023-05-15T00:32:13.465Z,9.05
2023-05-15T00:34:45.656Z,7.22
2023-05-15T00:37:22.118Z,7.18
2023-05-15T00:39:57.887Z,7.25
2023-05-15T00:42:30.618Z,8.57
2023-05-15T00:45:13.101Z,8.93
2023-05-15T00:47:47.215Z,8.65
2023-05-15T00:50:17.349Z,8.75
2023-05-15T00:52:46.989Z,8.50
2023-05-15T00:55:33.095Z,9.55
2023-05-15T00:58:07.305Z,8.95
2023-05-15T01:00:36.369Z,7.72
2023-05-15T01:03:10.297Z,11.40
2023-05-15T01:05:42.332Z,8.20
2023-05-15T01:08:22.618Z,8.15
2023-05-15T01:10:53.723Z,8.85
2023-05-15T01:13:23.990Z,7.28
2023-05-15T01:15:52.823Z,7.95
2023-05-15T01:18:23.604Z,9.05
2023-05-15T01:21:33.831Z,9.77
2023-05-15T01:24:17.459Z,7.35
2023-05-15T01:27:28.540Z,8.75
2023-05-15T01:30:07.992Z,7.55
2023-05-15T01:32:44.623Z,7.28
2023-05-15T01:35:20.202Z,7.28
2023-05-15T01:37:56.595Z,5.65
2023-05-15T01:40:27.521Z,6.70
2023-05-15T01:43:03.062Z,9.10
2023-05-15T01:45:48.017Z,6.57
2023-05-15T01:48:30.604Z,6.53
2023-05-15T01:51:04.879Z,6.22
2023-05-15T01:53:35.433Z,7.57
2023-05-15T01:56:08.220Z,7.95
2023-05-15T01:58:40.285Z,8.35
2023-05-15T02:01:14.478Z,7.07
2023-05-15T02:03:47.124Z,8.30
2023-05-15T02:06:22.914Z,7.47
2023-05-15T02:08:52.588Z,7.00
2023-05-15T02:11:23.348Z,6.82
2023-05-15T02:13:54.343Z,6.03
2023-05-15T02:16:23.051Z,7.53
2023-05-15T02:18:52.881Z,8.40
2023-05-15T02:21:21.949Z,8.68
2023-05-15T02:23:50.362Z,13.55
2023-05-15T02:26:31.642Z,7.63
2023-05-15T02:29:13.858Z,8.65
2023-05-15T02:31:52.815Z,6.88
2023-05-15T02:34:29.223Z,6.85
2023-05-15T02:37:01.673Z,6.20
2023-05-15T02:39:34.880Z,8.23
2023-05-15T02:42:03.818Z,8.30
2023-05-15T02:44:36.973Z,7.82
2023-05-15T02:47:07.302Z,7.57
2023-05-15T02:49:37.602Z,7.88
2023-05-15T02:52:11.696Z,8.20
2023-05-15T02:54:48.238Z,5.68
2023-05-15T02:57:21.014Z,7.20
2023-05-15T03:00:00.964Z,7.32
2023-05-15T03:02:33.693Z,7.82
2023-05-15T03:05:04.668Z,6.63
2023-05-15T03:07:33.816Z,5.65
2023-05-15T03:10:02.428Z,6.18
2023-05-15T03:12:34.958Z,6.45
2023-05-15T03:15:05.575Z,5.80
2023-05-15T03:17:53.677Z,5.47
2023-05-15T03:20:42.366Z,5.25
2023-05-15T03:23:14.031Z,4.28
2023-05-15T03:25:51.470Z,4.85
2023-05-15T03:28:22.446Z,4.80
2023-05-15T03:31:00.745Z,4.63
2023-05-15T03:38:13.059Z,4.25
2023-05-15T03:44:15.368Z,4.65
2023-05-15T03:47:36.830Z,4.75
2023-05-15T03:53:45.776Z,5.30
2023-05-15T03:56:14.813Z,7.00
2023-05-15T03:58:46.262Z,7.03
2023-05-15T04:01:21.327Z,7.55
2023-05-15T04:03:57.711Z,8.50
2023-05-15T04:06:27.821Z,9.80
2023-05-15T04:09:00.341Z,8.07
2023-05-15T04:11:40.071Z,7.25
2023-05-15T04:14:10.879Z,6.45
2023-05-15T04:16:40.942Z,5.32
2023-05-15T04:19:28.073Z,4.53
2023-05-15T04:26:06.289Z,4.20
2023-05-15T04:29:39.568Z,3.83
2023-05-15T04:32:40.849Z,3.70
2023-05-15T04:35:24.086Z,3.63
2023-05-15T04:42:02.813Z,4.82
2023-05-15T04:44:44.894Z,5.35
2023-05-15T04:47:56.223Z,4.43
2023-05-15T04:52:20.388Z,4.47
2023-05-15T04:55:12.690Z,5.65
2023-05-15T04:58:22.566Z,6.43
2023-05-15T05:01:40.631Z,5.40
2023-05-15T05:04:25.794Z,6.38
2023-05-15T05:07:03.160Z,5.85
2023-05-15T05:09:44.986Z,5.88
2023-05-15T05:12:42.700Z,7.38
2023-05-15T05:15:27.735Z,7.20
2023-05-15T05:27:13.775Z,6.57
2023-05-15T05:31:10.171Z,7.70
2023-05-15T05:40:22.761Z,6.38
2023-05-15T05:43:51.260Z,7.38
2023-05-15T05:59:44.018Z,16.55
2023-05-15T06:02:12.873Z,21.38
2023-05-15T06:04:41.213Z,23.13
2023-05-15T06:07:09.729Z,23.65
2023-05-15T06:09:38.115Z,24.33
2023-05-15T06:12:08.327Z,23.67
2023-05-15T06:14:36.821Z,24.70
2023-05-15T06:17:06.424Z,28.23
2023-05-15T06:19:34.668Z,27.08
2023-05-15T06:22:02.876Z,27.58
2023-05-15T06:24:31.067Z,28.25
2023-05-15T06:26:59.852Z,28.13
2023-05-15T06:29:28.273Z,31.35
2023-05-15T06:31:56.688Z,31.15
2023-05-15T06:34:26.388Z,29.88
2023-05-15T06:36:54.592Z,30.75
2023-05-15T06:39:22.791Z,30.30
2023-05-15T06:41:53.960Z,32.58
2023-05-15T06:44:23.646Z,32.83
2023-05-15T06:46:52.020Z,33.80
2023-05-15T06:49:20.646Z,33.42
2023-05-15T06:51:50.347Z,34.17
2023-05-15T06:54:18.567Z,35.20
2023-05-15T06:56:46.756Z,36.08
2023-05-15T06:59:14.955Z,34.60
2023-05-15T07:01:43.163Z,34.88
2023-05-15T07:04:13.742Z,34.47
2023-05-15T07:06:42.444Z,36.33
2023-05-15T07:09:12.129Z,34.28
2023-05-15T07:11:42.193Z,36.08
2023-05-15T07:14:10.929Z,33.80
2023-05-15T07:16:39.107Z,35.53
2023-05-15T07:19:09.774Z,34.88
2023-05-15T07:21:38.126Z,36.20
2023-05-15T07:24:08.522Z,34.08
2023-05-15T07:26:46.930Z,34.88
2023-05-15T07:29:25.487Z,32.08
2023-05-15T07:31:53.741Z,34.03
2023-05-15T08:20:14.654Z,33.97
2023-05-15T08:22:42.790Z,34.60
2023-05-15T08:25:11.645Z,32.88
2023-05-15T08:27:39.812Z,35.25
2023-05-15T08:30:09.228Z,32.10
2023-05-15T08:32:37.588Z,31.73
2023-05-15T08:35:06.548Z,33.65
2023-05-15T08:37:36.288Z,32.97
2023-05-15T08:40:08.053Z,32.33
2023-05-15T08:42:45.545Z,32.75
2023-05-15T08:45:14.856Z,32.63
2023-05-15T08:47:44.623Z,32.40
2023-05-15T08:50:15.279Z,32.65
2023-05-15T08:52:47.364Z,32.50
2023-05-15T08:55:16.397Z,32.78
2023-05-15T08:57:46.358Z,32.05
2023-05-15T09:00:21.086Z,33.08
2023-05-15T09:02:49.707Z,32.95
2023-05-15T09:05:18.250Z,31.15
2023-05-15T09:07:50.572Z,30.42
2023-05-15T09:10:19.244Z,31.20
2023-05-15T09:12:53.372Z,31.20
2023-05-15T09:15:25.714Z,32.00
2023-05-15T09:17:55.532Z,30.67
2023-05-15T09:20:29.140Z,31.52
2023-05-15T09:22:59.986Z,30.98
2023-05-15T09:25:40.686Z,29.05
2023-05-15T09:28:28.084Z,29.00
2023-05-15T09:31:04.436Z,30.25
2023-05-15T09:33:34.870Z,31.50
2023-05-15T09:36:06.355Z,33.28
2023-05-15T09:38:42.067Z,30.20
2023-05-15T09:41:13.549Z,29.10
2023-05-15T09:43:55.920Z,31.48
2023-05-15T09:46:27.265Z,28.05
2023-05-15T09:49:03.352Z,29.50
2023-05-15T09:51:50.207Z,29.88
2023-05-15T09:54:38.625Z,29.48
2023-05-15T09:57:17.405Z,28.80
2023-05-15T09:59:52.647Z,28.67
2023-05-15T10:02:42.439Z,29.83
2023-05-15T10:05:17.624Z,30.33
2023-05-15T10:08:24.641Z,28.70
2023-05-15T10:11:21.087Z,28.73
2023-05-15T10:14:58.786Z,29.65
2023-05-15T10:21:28.807Z,31.38
2023-05-15T10:24:16.581Z,29.35
2023-05-15T10:27:30.107Z,31.80
2023-05-15T10:30:27.930Z,29.67
2023-05-15T10:33:22.410Z,29.45
2023-05-15T10:36:33.085Z,30.00
2023-05-15T10:39:40.632Z,31.55
2023-05-15T10:43:18.024Z,31.45
2023-05-15T11:04:04.746Z,30.40
2023-05-15T11:07:34.477Z,31.67
2023-05-15T11:10:52.684Z,31.73
2023-05-15T11:13:52.154Z,31.08
2023-05-15T11:23:48.751Z,26.67
2023-05-15T11:27:19.930Z,28.48
2023-05-15T11:30:45.992Z,26.67
2023-05-15T11:35:02.326Z,27.17
2023-05-15T11:37:50.989Z,28.67
2023-05-15T11:40:46.522Z,28.90
2023-05-15T11:43:20.809Z,25.67
2023-05-15T11:45:57.296Z,28.10
2023-05-15T11:48:32.197Z,26.50
2023-05-15T11:51:10.449Z,27.60
2023-05-15T11:53:45.032Z,26.70
2023-05-15T11:56:24.671Z,26.92
2023-05-15T11:59:28.335Z,26.58
2023-05-15T12:01:58.197Z,25.95
2023-05-15T12:04:45.106Z,25.75
2023-05-15T12:07:51.135Z,25.13
2023-05-15T12:13:16.647Z,25.05
2023-05-15T12:15:56.672Z,24.05
2023-05-15T12:18:25.440Z,22.88
2023-05-15T12:21:05.657Z,22.92
2023-05-15T12:23:40.584Z,22.45
2023-05-15T12:26:49.170Z,24.88
2023-05-15T12:29:27.534Z,17.92
2023-05-15T12:32:27.208Z,9.65
2023-05-15T12:35:11.691Z,8.95
2023-05-15T12:37:41.253Z,11.13
2023-05-15T12:40:12.115Z,11.70
2023-05-15T12:42:49.582Z,11.85
2023-05-15T12:45:27.088Z,11.50
2023-05-15T12:48:00.023Z,11.73
2023-05-15T12:50:33.206Z,11.32
2023-05-15T12:53:05.981Z,11.43
2023-05-15T12:55:37.939Z,12.38
2023-05-15T12:58:13.740Z,13.23
2023-05-15T13:00:47.489Z,11.65
2023-05-15T13:03:22.746Z,12.98
2023-05-15T13:05:58.135Z,12.27
2023-05-15T13:08:26.937Z,12.18
2023-05-15T13:10:59.158Z,11.48
2023-05-15T13:13:45.331Z,12.77
2023-05-15T13:16:21.514Z,12.20
2023-05-15T13:18:50.330Z,12.32
2023-05-15T13:21:18.899Z,14.13
2023-05-15T13:23:47.242Z,13.10
2023-05-15T13:26:15.716Z,16.80
2023-05-15T13:28:45.521Z,17.02
2023-05-15T13:31:14.027Z,16.35
2023-05-15T13:33:42.391Z,16.40
2023-05-15T13:36:20.321Z,15.13
2023-05-15T13:38:48.652Z,16.92
2023-05-15T13:41:17.101Z,17.83
2023-05-15T13:43:47.919Z,19.90
2023-05-15T13:46:16.496Z,20.40
2023-05-15T13:48:45.559Z,19.60
2023-05-15T13:51:14.061Z,19.58
2023-05-15T13:53:42.865Z,12.38
2023-05-15T13:56:11.416Z,16.88
2023-05-15T13:58:40.589Z,11.35
2023-05-15T14:01:10.500Z,13.18
2023-05-15T14:03:39.042Z,13.90
2023-05-15T14:06:09.431Z,14.02
2023-05-15T14:08:38.128Z,14.02
2023-05-15T14:11:06.596Z,14.40
2023-05-15T14:13:35.689Z,14.05
2023-05-15T14:16:04.150Z,14.40
2023-05-15T14:18:34.031Z,16.05
2023-05-15T14:21:02.567Z,13.25
2023-05-15T14:23:31.226Z,14.68
2023-05-15T14:25:59.623Z,15.13
2023-05-15T14:28:28.057Z,17.58
2023-05-15T14:30:56.580Z,14.23
2023-05-15T14:33:25.224Z,13.50
2023-05-15T14:35:55.162Z,16.38
2023-05-15T14:38:23.632Z,15.95
2023-05-15T14:40:52.154Z,17.15
2023-05-15T14:43:20.891Z,17.17
2023-05-15T14:46:04.448Z,17.88
2023-05-15T14:48:37.039Z,18.17
2023-05-15T14:51:07.320Z,17.10
2023-05-15T14:53:35.808Z,17.08
2023-05-15T14:56:05.091Z,17.50
2023-05-15T14:58:36.407Z,16.67
2023-05-15T15:01:05.148Z,18.15
2023-05-15T15:03:43.638Z,18.65
2023-05-15T15:06:16.058Z,13.48
2023-05-15T15:08:48.929Z,14.15
2023-05-15T15:11:27.489Z,15.25
2023-05-15T15:13:57.284Z,16.40
2023-05-15T15:16:29.623Z,16.05
2023-05-15T15:19:02.840Z,17.52
2023-05-15T15:21:34.676Z,19.17
2023-05-15T15:24:06.324Z,16.67
2023-05-15T15:26:37.144Z,15.88
2023-05-15T15:29:08.517Z,17.42
2023-05-15T15:31:37.313Z,15.88
2023-05-15T15:34:10.567Z,14.98
2023-05-15T15:36:41.543Z,17.00
2023-05-15T15:39:11.649Z,16.77
2023-05-15T15:41:40.787Z,16.52
2023-05-15T15:44:15.881Z,16.67
2023-05-15T15:46:44.514Z,18.50
2023-05-15T15:49:15.066Z,16.60
2023-05-15T15:51:45.437Z,17.02
2023-05-15T15:54:13.915Z,16.63
2023-05-15T15:56:42.974Z,17.83
2023-05-15T15:59:11.747Z,18.30
2023-05-15T16:01:40.626Z,17.85
2023-05-15T16:04:09.583Z,17.10
2023-05-15T16:07:06.373Z,18.15
2023-05-15T16:09:39.373Z,16.17
2023-05-15T16:12:10.064Z,16.95
2023-05-15T16:14:39.315Z,17.30
2023-05-15T16:17:10.006Z,19.67
2023-05-15T16:19:38.674Z,18.63
2023-05-15T16:22:08.754Z,18.60
2023-05-15T16:24:43.660Z,18.63
2023-05-15T16:27:15.498Z,19.50
2023-05-15T16:29:47.573Z,20.55
2023-05-15T16:32:16.512Z,18.42
2023-05-15T16:34:45.006Z,20.13
2023-05-15T16:37:15.223Z,18.77
2023-05-15T16:39:46.374Z,19.90
2023-05-15T16:42:17.547Z,18.98
2023-05-15T16:44:46.154Z,18.35
2023-05-15T16:47:16.969Z,17.45
2023-05-15T16:49:49.859Z,18.63
2023-05-15T16:52:26.487Z,18.65
2023-05-15T16:54:59.386Z,20.63
2023-05-15T16:57:30.839Z,19.08
2023-05-15T17:00:06.529Z,17.45
2023-05-15T17:02:46.023Z,17.35
2023-05-15T17:05:19.966Z,17.08
2023-05-15T17:08:04.756Z,17.25
2023-05-15T17:10:42.297Z,17.85
2023-05-15T17:13:11.128Z,17.63
2023-05-15T17:15:42.846Z,19.13
2023-05-15T17:18:18.779Z,17.27
2023-05-15T17:20:57.248Z,20.23
2023-05-15T17:23:31.178Z,18.98
2023-05-15T17:26:22.693Z,21.05
2023-05-15T17:28:57.903Z,19.15
2023-05-15T17:31:58.228Z,19.40
2023-05-15T17:34:51.566Z,18.92
2023-05-15T17:37:36.710Z,21.13
2023-05-15T17:40:18.865Z,24.67
2023-05-15T17:43:04.356Z,23.02
2023-05-15T17:50:24.636Z,17.92
2023-05-15T17:53:39.201Z,18.00
2023-05-15T17:56:34.317Z,19.15
2023-05-15T17:59:09.553Z,19.13
2023-05-15T18:01:38.967Z,19.23
2023-05-15T18:04:10.391Z,18.45
2023-05-15T18:06:43.389Z,17.08
2023-05-15T18:09:24.913Z,18.27
2023-05-15T18:12:22.066Z,17.25
2023-05-15T18:14:57.998Z,17.50
2023-05-15T18:17:41.352Z,18.48
2023-05-15T18:20:12.516Z,18.58
2023-05-15T18:22:41.208Z,17.98
2023-05-15T18:25:16.017Z,17.90
2023-05-15T18:27:50.299Z,20.17
2023-05-15T18:30:19.158Z,18.65
2023-05-15T18:32:47.946Z,19.00
2023-05-15T18:35:21.114Z,18.95
2023-05-15T18:38:04.937Z,18.15
2023-05-15T18:40:33.946Z,19.30
2023-05-15T18:43:04.160Z,18.73
2023-05-15T18:45:33.211Z,17.90
2023-05-15T18:48:01.918Z,18.05
2023-05-15T18:50:31.918Z,18.58
2023-05-15T18:53:03.500Z,19.15
2023-05-15T18:55:32.293Z,17.90
2023-05-15T18:58:01.210Z,16.40
2023-05-15T19:00:38.026Z,16.52
2023-05-15T19:03:10.975Z,16.45
2023-05-15T19:05:39.935Z,17.30
2023-05-15T19:08:12.155Z,18.73
2023-05-15T19:10:40.935Z,17.35
2023-05-15T19:13:09.497Z,19.20
2023-05-15T19:15:39.736Z,18.48
2023-05-15T19:18:08.484Z,18.65
2023-05-15T19:20:36.982Z,19.92
2023-05-15T19:23:05.527Z,17.08
2023-05-15T19:25:35.050Z,17.92
2023-05-15T19:28:06.911Z,16.70
2023-05-15T19:30:35.496Z,20.40
2023-05-15T19:33:07.691Z,19.58
2023-05-15T19:35:37.724Z,20.70
2023-05-15T19:38:07.164Z,20.75
2023-05-15T19:40:38.022Z,22.10
2023-05-15T19:43:06.559Z,24.55
2023-05-15T19:45:36.085Z,26.52
2023-05-15T19:48:04.611Z,28.60
2023-05-15T19:50:34.568Z,27.45
2023-05-15T19:53:03.500Z,30.83
2023-05-15T19:55:32.218Z,27.85
2023-05-15T19:58:01.178Z,27.15
2023-05-15T20:00:30.255Z,27.85
2023-05-15T20:03:00.823Z,28.23
2023-05-15T20:05:29.648Z,28.15
2023-05-15T20:08:02.078Z,25.25
2023-05-15T20:10:31.719Z,24.50
2023-05-15T20:13:02.152Z,24.27
2023-05-15T20:15:33.711Z,24.50
2023-05-15T20:18:02.409Z,22.70
2023-05-15T20:20:31.161Z,23.50
2023-05-15T20:23:01.330Z,22.63
2023-05-15T20:25:40.087Z,22.52
2023-05-15T20:28:08.718Z,20.52
2023-05-15T20:30:37.411Z,22.63
2023-05-15T20:33:06.064Z,19.15
2023-05-15T20:35:34.739Z,18.77
2023-05-15T20:38:04.610Z,18.17
2023-05-15T20:40:33.124Z,17.17
2023-05-15T20:43:02.426Z,16.13
2023-05-15T20:45:32.405Z,15.57
2023-05-15T20:48:01.057Z,14.50
2023-05-15T20:50:29.469Z,13.93
2023-05-15T20:52:57.860Z,16.52
2023-05-15T20:55:27.813Z,13.70
2023-05-15T20:57:56.227Z,14.45
2023-05-15T21:00:24.779Z,15.05
2023-05-15T21:02:53.422Z,12.38
2023-05-15T21:05:22.113Z,18.63
2023-05-15T21:07:50.960Z,14.25
2023-05-15T21:10:20.192Z,21.33
2023-05-15T21:12:50.721Z,17.17
2023-05-15T21:15:22.579Z,17.58
2023-05-15T21:17:51.159Z,19.40
2023-05-15T21:20:19.753Z,18.42
2023-05-15T21:22:50.577Z,18.88
2023-05-15T21:25:19.293Z,17.73
2023-05-15T21:27:51.112Z,18.67
2023-05-15T21:30:19.875Z,16.90
2023-05-15T21:32:48.328Z,16.92
2023-05-15T21:35:17.051Z,18.65
2023-05-15T21:37:45.446Z,17.08
2023-05-15T21:40:14.912Z,19.15
2023-05-15T21:42:43.322Z,20.27
2023-05-15T21:45:13.298Z,20.67
2023-05-15T21:47:41.802Z,16.15
2023-05-15T21:50:10.773Z,16.98
2023-05-15T21:52:39.156Z,17.00
2023-05-15T21:55:09.388Z,17.85
2023-05-15T21:57:37.895Z,20.35
2023-05-15T22:00:08.420Z,23.45
2023-05-15T22:02:38.582Z,17.35
2023-05-15T22:05:07.856Z,17.40
2023-05-15T22:07:39.478Z,19.25
2023-05-15T22:10:13.920Z,27.10
2023-05-15T22:12:42.691Z,20.33
2023-05-15T22:15:13.185Z,22.83
2023-05-15T22:17:44.852Z,20.52
2023-05-15T22:20:20.428Z,17.33
2023-05-15T22:22:51.633Z,19.58
2023-05-15T22:25:21.395Z,19.58
2023-05-15T22:27:49.910Z,21.40
2023-05-15T22:30:18.502Z,27.95
2023-05-15T22:32:51.436Z,22.15
2023-05-15T22:35:22.276Z,19.10
2023-05-15T22:37:50.854Z,21.45
2023-05-15T22:40:21.677Z,19.80
2023-05-15T22:42:50.396Z,20.65
2023-05-15T22:45:20.427Z,19.33
2023-05-15T22:47:57.221Z,23.98
2023-05-15T22:50:26.943Z,28.02
2023-05-15T22:52:55.656Z,27.08
2023-05-15T22:55:24.194Z,29.23
2023-05-15T22:57:52.728Z,27.33
2023-05-15T23:00:23.468Z,28.83
2023-05-15T23:02:55.545Z,34.70
2023-05-15T23:05:30.445Z,30.77
2023-05-15T23:07:58.987Z,33.40
2023-05-15T23:10:29.952Z,32.00
2023-05-15T23:12:58.822Z,34.20
2023-05-15T23:15:27.283Z,28.73
2023-05-15T23:17:58.015Z,27.70
2023-05-15T23:20:26.776Z,26.70
2023-05-15T23:22:55.613Z,25.40
2023-05-15T23:25:24.333Z,24.48
2023-05-15T23:27:58.556Z,24.60
2023-05-15T23:30:30.016Z,22.90
2023-05-15T23:33:00.631Z,24.30
2023-05-15T23:35:30.445Z,22.35
2023-05-15T23:37:59.368Z,22.88
2023-05-15T23:40:28.212Z,23.30
2023-05-15T23:42:57.166Z,21.65
2023-05-15T23:45:28.788Z,22.98
2023-05-15T23:47:57.771Z,23.90
2023-05-15T23:50:28.165Z,21.25
2023-05-15T23:52:59.215Z,22.73
2023-05-15T23:55:27.942Z,21.17
2023-05-15T23:57:56.751Z,22.65
